createdAt,value
2022-10-13T00:04:38.607Z,96251.28
2022-10-13T00:09:40.024Z,96249.19
2022-10-13T00:14:41.567Z,96259.53
2022-10-13T00:19:42.966Z,96262.22
2022-10-13T00:24:44.684Z,96251.75
2022-10-13T00:29:47.154Z,96262.63
2022-10-13T00:34:48.579Z,96268.47
2022-10-13T00:39:50.814Z,96267.56
2022-10-13T00:45:28.715Z,96283.97
2022-10-13T00:50:37.626Z,96283.84
2022-10-13T00:55:41.759Z,96287.00
2022-10-13T01:00:46.689Z,96279.53
2022-10-13T01:05:51.387Z,96289.56
2022-10-13T01:11:17.067Z,96282.59
2022-10-13T01:16:21.429Z,96277.28
2022-10-13T01:21:39.008Z,96260.88
2022-10-13T01:27:08.075Z,96268.94
2022-10-13T01:32:29.790Z,96251.69
2022-10-13T01:38:11.319Z,96248.47
2022-10-13T01:43:26.062Z,96249.19
2022-10-13T01:48:28.594Z,96248.75
2022-10-13T01:53:30.755Z,96239.69
2022-10-13T01:58:35.920Z,96239.25
2022-10-13T02:04:00.599Z,96240.75
2022-10-13T02:09:43.474Z,96243.09
2022-10-13T02:14:47.663Z,96237.09
2022-10-13T02:19:49.330Z,96228.88
2022-10-13T02:24:51.001Z,96232.88
2022-10-13T02:29:55.852Z,96226.63
2022-10-13T02:35:01.415Z,96233.69
2022-10-13T02:40:03.249Z,96233.47
2022-10-13T02:45:05.199Z,96229.69
2022-10-13T02:50:07.171Z,96233.88
2022-10-13T02:55:08.884Z,96235.44
2022-10-13T03:00:10.945Z,96237.06
2022-10-13T03:05:12.334Z,96234.16
2022-10-13T03:10:13.879Z,96233.88
2022-10-13T03:15:15.472Z,96236.81
2022-10-13T03:20:17.592Z,96229.53
2022-10-13T03:25:18.992Z,96243.94
2022-10-13T03:30:20.403Z,96244.50
2022-10-13T03:35:21.857Z,96246.94
2022-10-13T03:40:23.322Z,96240.09
2022-10-13T03:45:24.727Z,96242.75
2022-10-13T03:50:26.191Z,96243.81
2022-10-13T03:55:28.975Z,96248.81
2022-10-13T04:00:30.426Z,96252.69
2022-10-13T04:05:34.062Z,96254.75
2022-10-13T04:10:35.628Z,96255.78
2022-10-13T04:15:40.610Z,96237.06
2022-10-13T04:20:42.031Z,96239.00
2022-10-13T04:25:43.454Z,96243.00
2022-10-13T04:30:49.265Z,96235.59
2022-10-13T04:35:51.031Z,96245.78
2022-10-13T04:40:52.414Z,96249.28
2022-10-13T04:45:53.799Z,96244.81
2022-10-13T04:51:03.425Z,96239.22
2022-10-13T04:56:08.314Z,96225.75
2022-10-13T05:01:18.850Z,96228.13
2022-10-13T05:06:35.814Z,96216.84
2022-10-13T05:11:37.402Z,96222.03
2022-10-13T05:16:38.787Z,96214.09
2022-10-13T05:21:40.263Z,96216.03
2022-10-13T05:26:41.913Z,96217.72
2022-10-13T05:31:43.294Z,96215.94
2022-10-13T05:36:44.672Z,96221.94
2022-10-13T05:41:46.115Z,96226.88
2022-10-13T05:46:55.111Z,96218.38
2022-10-13T05:52:03.208Z,96219.84
2022-10-13T05:57:08.764Z,96218.78
2022-10-13T06:02:14.662Z,96224.63
2022-10-13T06:07:16.980Z,96221.97
2022-10-13T06:12:18.566Z,96224.78
2022-10-13T06:17:20.255Z,96226.66
2022-10-13T06:22:22.070Z,96225.81
2022-10-13T06:27:23.961Z,96238.69
2022-10-13T06:32:27.969Z,96231.72
2022-10-13T06:37:29.380Z,96238.25
2022-10-13T06:42:30.878Z,96237.94
2022-10-13T06:47:44.601Z,96231.56
2022-10-13T06:52:46.507Z,96231.59
2022-10-13T06:57:48.142Z,96229.44
2022-10-13T07:02:51.202Z,96228.00
2022-10-13T07:07:53.003Z,96226.34
2022-10-13T07:12:54.392Z,96226.31
2022-10-13T07:17:57.876Z,96225.91
2022-10-13T07:22:59.318Z,96226.63
2022-10-13T07:28:00.755Z,96217.09
2022-10-13T07:33:02.133Z,96207.09
2022-10-13T07:38:03.548Z,96204.03
2022-10-13T07:43:04.945Z,96192.72
2022-10-13T07:48:06.689Z,96183.66
2022-10-13T07:53:08.135Z,96182.59
2022-10-13T07:58:09.818Z,96187.19
2022-10-13T08:03:11.219Z,96181.31
2022-10-13T08:08:12.623Z,96187.63
2022-10-13T08:13:14.244Z,96180.56
2022-10-13T08:18:16.081Z,96188.38
2022-10-13T08:23:17.483Z,96176.03
2022-10-13T08:28:27.758Z,96174.41
2022-10-13T08:33:29.180Z,96163.66
2022-10-13T08:38:30.564Z,96160.38
2022-10-13T08:43:32.071Z,96151.88
2022-10-13T08:48:40.138Z,96152.31
2022-10-13T08:53:43.929Z,96156.09
2022-10-13T08:58:48.934Z,96158.75
2022-10-13T09:04:11.127Z,96160.81
2022-10-13T09:09:17.891Z,96162.22
2022-10-13T09:14:26.037Z,96146.09
2022-10-13T09:19:34.655Z,96149.50
2022-10-13T09:24:36.073Z,96157.69
2022-10-13T09:29:37.503Z,96157.16
2022-10-13T09:34:38.943Z,96146.31
2022-10-13T09:39:40.343Z,96143.41
2022-10-13T09:44:41.883Z,96134.56
2022-10-13T09:49:44.043Z,96132.03
2022-10-13T09:54:51.285Z,96140.59
2022-10-13T10:00:16.989Z,96140.66
2022-10-13T10:05:26.948Z,96140.00
2022-10-13T10:10:36.778Z,96149.09
2022-10-13T10:16:14.708Z,96147.41
2022-10-13T10:21:36.576Z,96144.16
2022-10-13T10:26:54.729Z,96148.47
2022-10-13T10:32:27.705Z,96149.13
2022-10-13T10:37:34.968Z,96142.16
2022-10-13T10:43:01.704Z,96128.13
2022-10-13T10:48:16.160Z,96135.78
2022-10-13T10:53:27.703Z,96127.75
2022-10-13T10:58:49.552Z,96119.19
2022-10-13T11:04:18.895Z,96101.00
2022-10-13T11:09:41.925Z,96104.59
2022-10-13T11:14:43.319Z,96089.22
2022-10-13T11:19:46.475Z,96085.75
2022-10-13T11:24:56.632Z,96070.19
2022-10-13T11:30:00.197Z,96062.38
2022-10-13T11:35:04.588Z,96067.50
2022-10-13T11:40:28.046Z,96072.31
2022-10-13T11:45:38.499Z,96060.50
2022-10-13T11:51:04.374Z,96049.97
2022-10-13T11:56:19.220Z,96057.16
2022-10-13T12:01:20.861Z,96053.13
2022-10-13T12:06:25.921Z,96046.81
2022-10-13T12:11:37.470Z,96045.50
2022-10-13T12:16:51.568Z,96035.34
2022-10-13T12:22:00.821Z,96021.72
2022-10-13T12:27:10.873Z,96019.75
2022-10-13T12:32:30.287Z,96013.13
2022-10-13T12:37:35.115Z,96001.59
2022-10-13T12:42:38.198Z,96000.50
2022-10-13T12:47:46.679Z,95998.03
2022-10-13T12:52:48.554Z,95998.31
2022-10-13T12:57:51.418Z,95989.50
2022-10-13T13:03:07.072Z,95991.81
2022-10-13T13:08:30.261Z,95987.13
2022-10-13T13:13:31.606Z,95983.88
2022-10-13T13:18:36.935Z,95981.75
2022-10-13T13:23:38.424Z,95976.91
2022-10-13T13:28:54.902Z,95970.66
2022-10-13T13:33:56.323Z,95969.66
2022-10-13T13:38:57.693Z,95975.06
2022-10-13T13:43:59.115Z,95978.56
2022-10-13T13:49:00.703Z,95974.78
2022-10-13T13:54:02.128Z,95978.91
2022-10-13T13:59:03.547Z,95969.59
2022-10-13T14:04:05.032Z,95966.03
2022-10-13T14:09:06.447Z,95964.22
2022-10-13T14:14:07.880Z,95950.50
2022-10-13T14:19:09.382Z,95943.63
2022-10-13T14:24:10.809Z,95945.31
2022-10-13T14:29:12.288Z,95954.34
2022-10-13T14:34:13.723Z,95949.59
2022-10-13T14:39:15.104Z,95938.41
2022-10-13T14:44:16.562Z,95944.75
2022-10-13T14:49:19.664Z,95942.09
2022-10-13T14:54:23.924Z,95941.72
2022-10-13T14:59:25.610Z,95949.50
2022-10-13T15:04:27.051Z,95954.44
2022-10-13T15:09:38.748Z,95961.28
2022-10-13T15:14:49.896Z,95942.66
2022-10-13T15:19:51.372Z,95934.84
2022-10-13T15:24:52.800Z,95922.84
2022-10-13T15:29:54.190Z,95921.97
2022-10-13T15:34:55.605Z,95918.34
2022-10-13T15:39:57.808Z,95927.38
2022-10-13T15:45:14.521Z,95915.13
2022-10-13T15:50:16.070Z,95924.97
2022-10-13T15:55:18.031Z,95920.34
2022-10-13T16:00:19.460Z,95918.34
2022-10-13T16:05:20.871Z,95918.69
2022-10-13T16:10:22.309Z,95919.69
2022-10-13T16:15:23.747Z,95922.56
2022-10-13T16:20:25.323Z,95927.03
2022-10-13T16:25:27.115Z,95929.50
2022-10-13T16:30:28.682Z,95921.06
2022-10-13T16:35:30.149Z,95922.56
2022-10-13T16:40:31.564Z,95922.91
2022-10-13T16:45:54.973Z,95918.72
2022-10-13T16:50:55.310Z,95915.09
2022-10-13T16:55:57.631Z,95923.72
2022-10-13T17:01:04.448Z,95927.03
2022-10-13T17:06:06.603Z,95931.69
2022-10-13T17:11:22.753Z,95926.88
2022-10-13T17:16:25.098Z,95936.34
2022-10-13T17:21:26.538Z,95947.81
2022-10-13T17:26:28.274Z,95939.16
2022-10-13T17:31:30.178Z,95932.50
2022-10-13T17:36:31.988Z,95944.47
2022-10-13T17:41:35.820Z,95950.13
2022-10-13T17:46:38.597Z,95941.44
2022-10-13T17:51:42.307Z,95950.41
2022-10-13T17:56:43.990Z,95944.09
2022-10-13T18:01:45.912Z,95939.63
2022-10-13T18:06:47.563Z,95934.66
2022-10-13T18:11:51.077Z,95929.13
2022-10-13T18:16:53.389Z,95949.16
2022-10-13T18:21:54.790Z,95956.81
2022-10-13T18:26:56.282Z,95958.75
2022-10-13T18:31:58.354Z,95955.91
2022-10-13T18:36:59.829Z,95965.69
2022-10-13T18:42:01.247Z,95973.97
2022-10-13T18:47:08.573Z,95978.09
2022-10-13T18:52:10.011Z,95984.09
2022-10-13T18:57:14.088Z,95977.94
2022-10-13T19:02:15.583Z,95990.75
2022-10-13T19:07:17.022Z,95994.91
2022-10-13T19:12:18.394Z,96004.75
2022-10-13T19:17:20.036Z,96002.88
2022-10-13T19:22:21.573Z,96011.03
2022-10-13T19:27:23.251Z,96008.88
2022-10-13T19:32:24.996Z,96010.84
2022-10-13T19:37:26.427Z,96011.38
2022-10-13T19:42:28.161Z,96014.25
2022-10-13T19:47:29.640Z,96009.22
2022-10-13T19:52:31.054Z,96012.97
2022-10-13T19:57:32.451Z,96018.69
2022-10-13T20:02:33.915Z,96018.81
2022-10-13T20:07:35.351Z,96021.97
2022-10-13T20:12:40.299Z,96019.22
2022-10-13T20:17:41.741Z,96017.53
2022-10-13T20:22:43.118Z,96013.09
2022-10-13T20:27:44.511Z,96015.09
2022-10-13T20:32:45.919Z,96025.16
2022-10-13T20:37:47.362Z,96026.28
2022-10-13T20:42:50.561Z,96030.78
2022-10-13T20:47:52.287Z,96036.91
2022-10-13T20:52:53.675Z,96034.09
2022-10-13T20:57:55.089Z,96032.56
2022-10-13T21:03:01.148Z,96025.16
2022-10-13T21:08:03.507Z,96030.47
2022-10-13T21:13:05.661Z,96041.94
2022-10-13T21:18:07.848Z,96029.13
2022-10-13T21:23:11.411Z,96036.56
2022-10-13T21:28:12.849Z,96028.38
2022-10-13T21:33:14.248Z,96027.69
2022-10-13T21:38:15.647Z,96035.34
2022-10-13T21:43:20.459Z,96035.75
2022-10-13T21:48:21.951Z,96040.97
2022-10-13T21:53:23.330Z,96036.88
2022-10-13T21:58:24.737Z,96037.72
2022-10-13T22:03:26.416Z,96032.88
2022-10-13T22:08:37.885Z,96039.78
2022-10-13T22:13:47.163Z,96032.78
2022-10-13T22:18:51.707Z,96029.13
2022-10-13T22:23:56.700Z,96028.44
2022-10-13T22:28:59.603Z,96025.81
2022-10-13T22:34:02.856Z,96021.63
2022-10-13T22:39:04.962Z,96015.94
2022-10-13T22:44:06.392Z,96024.00
2022-10-13T22:49:07.921Z,96020.50
2022-10-13T22:54:09.494Z,96006.84
2022-10-13T22:59:11.815Z,96009.78
2022-10-13T23:04:13.240Z,96010.78
2022-10-13T23:09:14.641Z,96007.63
2022-10-13T23:14:16.088Z,96003.97
2022-10-13T23:19:17.506Z,96009.66
2022-10-13T23:24:18.999Z,96000.13
2022-10-13T23:29:20.425Z,95998.97
2022-10-13T23:34:21.895Z,95997.16
2022-10-13T23:39:23.362Z,96000.25
2022-10-13T23:44:24.811Z,95993.66
2022-10-13T23:49:27.185Z,95989.06
2022-10-13T23:54:30.718Z,95981.91
2022-10-13T23:59:32.101Z,95982.59
